sensor_id;sensor_type;location;lat;lon;timestamp;pressure;altitude;pressure_sealevel;temperature;humidity
59588;BME280;45412;54.472;18.464;2022-09-17T00:01:32;98087.95;;;9.07;100.00
59588;BME280;45412;54.472;18.464;2022-09-17T00:04:20;98095.85;;;9.12;100.00
59588;BME280;45412;54.472;18.464;2022-09-17T00:07:09;98090.95;;;9.17;100.00
59588;BME280;45412;54.472;18.464;2022-09-17T00:09:57;98090.25;;;9.22;100.00
59588;BME280;45412;54.472;18.464;2022-09-17T00:12:46;98092.41;;;9.27;100.00
59588;BME280;45412;54.472;18.464;2022-09-17T00:15:45;98090.88;;;9.32;100.00
59588;BME280;45412;54.472;18.464;2022-09-17T00:18:34;98089.74;;;9.36;100.00
59588;BME280;45412;54.472;18.464;2022-09-17T00:21:23;98092.38;;;9.39;100.00
59588;BME280;45412;54.472;18.464;2022-09-17T00:24:14;98100.14;;;9.41;100.00
59588;BME280;45412;54.472;18.464;2022-09-17T00:27:02;98088.76;;;9.42;100.00
59588;BME280;45412;54.472;18.464;2022-09-17T00:29:50;98091.39;;;9.42;100.00
59588;BME280;45412;54.472;18.464;2022-09-17T00:32:38;98090.83;;;9.41;100.00
59588;BME280;45412;54.472;18.464;2022-09-17T00:35:26;98098.35;;;9.40;100.00
59588;BME280;45412;54.472;18.464;2022-09-17T00:38:15;98098.70;;;9.38;100.00
59588;BME280;45412;54.472;18.464;2022-09-17T00:41:04;98105.39;;;9.35;100.00
59588;BME280;45412;54.472;18.464;2022-09-17T00:43:58;98114.94;;;9.33;100.00
59588;BME280;45412;54.472;18.464;2022-09-17T00:46:48;98115.65;;;9.33;100.00
59588;BME280;45412;54.472;18.464;2022-09-17T00:49:36;98113.11;;;9.34;100.00
59588;BME280;45412;54.472;18.464;2022-09-17T00:52:32;98117.41;;;9.35;100.00
59588;BME280;45412;54.472;18.464;2022-09-17T00:55:30;98117.81;;;9.36;100.00
59588;BME280;45412;54.472;18.464;2022-09-17T00:58:20;98110.21;;;9.38;100.00
59588;BME280;45412;54.472;18.464;2022-09-17T01:01:09;98114.28;;;9.40;100.00
59588;BME280;45412;54.472;18.464;2022-09-17T01:03:57;98109.08;;;9.41;100.00
59588;BME280;45412;54.472;18.464;2022-09-17T01:11:08;98106.04;;;9.46;100.00
59588;BME280;45412;54.472;18.464;2022-09-17T01:17:27;98108.97;;;9.50;100.00
59588;BME280;45412;54.472;18.464;2022-09-17T01:27:06;98101.22;;;9.53;100.00
59588;BME280;45412;54.472;18.464;2022-09-17T01:37:01;98098.45;;;9.51;100.00
59588;BME280;45412;54.472;18.464;2022-09-17T01:43:25;98112.09;;;9.49;100.00
59588;BME280;45412;54.472;18.464;2022-09-17T01:49:09;98100.66;;;9.48;100.00
59588;BME280;45412;54.472;18.464;2022-09-17T01:51:59;98100.13;;;9.48;100.00
59588;BME280;45412;54.472;18.464;2022-09-17T01:54:54;98094.39;;;9.47;100.00
59588;BME280;45412;54.472;18.464;2022-09-17T01:57:52;98095.52;;;9.45;100.00
59588;BME280;45412;54.472;18.464;2022-09-17T02:00:49;98105.16;;;9.43;100.00
59588;BME280;45412;54.472;18.464;2022-09-17T02:03:51;98104.59;;;9.41;100.00
59588;BME280;45412;54.472;18.464;2022-09-17T02:06:47;98117.37;;;9.41;100.00
59588;BME280;45412;54.472;18.464;2022-09-17T02:10:16;98120.32;;;9.40;100.00
59588;BME280;45412;54.472;18.464;2022-09-17T02:13:12;98118.42;;;9.39;100.00
59588;BME280;45412;54.472;18.464;2022-09-17T02:16:33;98117.20;;;9.39;100.00
59588;BME280;45412;54.472;18.464;2022-09-17T02:19:29;98115.13;;;9.36;100.00
59588;BME280;45412;54.472;18.464;2022-09-17T02:22:57;98122.26;;;9.36;100.00
59588;BME280;45412;54.472;18.464;2022-09-17T02:25:52;98113.89;;;9.35;100.00
59588;BME280;45412;54.472;18.464;2022-09-17T02:28:49;98117.86;;;9.34;100.00
59588;BME280;45412;54.472;18.464;2022-09-17T02:31:38;98118.16;;;9.33;100.00
59588;BME280;45412;54.472;18.464;2022-09-17T02:34:29;98118.62;;;9.32;100.00
59588;BME280;45412;54.472;18.464;2022-09-17T02:37:16;98117.12;;;9.31;100.00
59588;BME280;45412;54.472;18.464;2022-09-17T02:40:06;98114.79;;;9.30;100.00
59588;BME280;45412;54.472;18.464;2022-09-17T02:46:44;98116.13;;;9.27;100.00
59588;BME280;45412;54.472;18.464;2022-09-17T02:53:33;98110.47;;;9.22;100.00
59588;BME280;45412;54.472;18.464;2022-09-17T03:00:21;98115.80;;;9.20;100.00
59588;BME280;45412;54.472;18.464;2022-09-17T03:03:35;98116.53;;;9.19;100.00
59588;BME280;45412;54.472;18.464;2022-09-17T03:06:24;98117.66;;;9.19;100.00
59588;BME280;45412;54.472;18.464;2022-09-17T03:09:15;98127.02;;;9.19;100.00
59588;BME280;45412;54.472;18.464;2022-09-17T03:12:04;98125.46;;;9.18;100.00
59588;BME280;45412;54.472;18.464;2022-09-17T03:14:52;98130.88;;;9.19;100.00
59588;BME280;45412;54.472;18.464;2022-09-17T03:17:40;98119.63;;;9.20;100.00
59588;BME280;45412;54.472;18.464;2022-09-17T03:20:28;98122.21;;;9.19;100.00
59588;BME280;45412;54.472;18.464;2022-09-17T03:23:25;98126.43;;;9.16;100.00
59588;BME280;45412;54.472;18.464;2022-09-17T03:26:14;98123.17;;;9.13;100.00
59588;BME280;45412;54.472;18.464;2022-09-17T03:29:02;98126.11;;;9.11;100.00
59588;BME280;45412;54.472;18.464;2022-09-17T03:31:50;98126.88;;;9.07;100.00
59588;BME280;45412;54.472;18.464;2022-09-17T03:34:38;98122.92;;;9.00;100.00
59588;BME280;45412;54.472;18.464;2022-09-17T03:37:26;98124.72;;;8.95;100.00
59588;BME280;45412;54.472;18.464;2022-09-17T03:40:19;98121.86;;;8.88;100.00
59588;BME280;45412;54.472;18.464;2022-09-17T03:43:07;98123.20;;;8.83;100.00
59588;BME280;45412;54.472;18.464;2022-09-17T03:45:55;98122.05;;;8.77;100.00
59588;BME280;45412;54.472;18.464;2022-09-17T03:48:44;98113.48;;;8.69;100.00
59588;BME280;45412;54.472;18.464;2022-09-17T03:51:32;98123.61;;;8.63;100.00
59588;BME280;45412;54.472;18.464;2022-09-17T03:54:20;98121.92;;;8.58;100.00
59588;BME280;45412;54.472;18.464;2022-09-17T03:57:08;98119.41;;;8.52;100.00
59588;BME280;45412;54.472;18.464;2022-09-17T03:59:56;98124.30;;;8.49;100.00
59588;BME280;45412;54.472;18.464;2022-09-17T04:02:44;98121.42;;;8.46;100.00
59588;BME280;45412;54.472;18.464;2022-09-17T04:05:32;98124.27;;;8.42;100.00
59588;BME280;45412;54.472;18.464;2022-09-17T04:08:20;98123.09;;;8.40;100.00
59588;BME280;45412;54.472;18.464;2022-09-17T04:11:08;98116.02;;;8.38;100.00
59588;BME280;45412;54.472;18.464;2022-09-17T04:13:56;98119.70;;;8.39;100.00
59588;BME280;45412;54.472;18.464;2022-09-17T04:16:44;98112.31;;;8.38;100.00
59588;BME280;45412;54.472;18.464;2022-09-17T04:19:32;98112.39;;;8.39;100.00
59588;BME280;45412;54.472;18.464;2022-09-17T04:22:22;98116.84;;;8.41;100.00
59588;BME280;45412;54.472;18.464;2022-09-17T04:25:11;98123.68;;;8.43;100.00
59588;BME280;45412;54.472;18.464;2022-09-17T04:27:59;98122.21;;;8.45;100.00
59588;BME280;45412;54.472;18.464;2022-09-17T04:30:47;98118.65;;;8.47;100.00
59588;BME280;45412;54.472;18.464;2022-09-17T04:33:35;98116.29;;;8.50;100.00
59588;BME280;45412;54.472;18.464;2022-09-17T04:36:27;98113.42;;;8.54;100.00
59588;BME280;45412;54.472;18.464;2022-09-17T04:39:15;98117.14;;;8.58;100.00
59588;BME280;45412;54.472;18.464;2022-09-17T04:42:03;98116.02;;;8.62;100.00
59588;BME280;45412;54.472;18.464;2022-09-17T04:44:51;98120.59;;;8.65;100.00
59588;BME280;45412;54.472;18.464;2022-09-17T04:47:39;98127.58;;;8.71;100.00
59588;BME280;45412;54.472;18.464;2022-09-17T04:50:28;98136.61;;;8.78;100.00
59588;BME280;45412;54.472;18.464;2022-09-17T04:53:17;98137.77;;;8.86;100.00
59588;BME280;45412;54.472;18.464;2022-09-17T04:56:05;98143.21;;;8.97;100.00
59588;BME280;45412;54.472;18.464;2022-09-17T04:58:53;98149.26;;;9.09;100.00
59588;BME280;45412;54.472;18.464;2022-09-17T05:01:41;98154.30;;;9.22;100.00
59588;BME280;45412;54.472;18.464;2022-09-17T05:04:29;98158.17;;;9.33;100.00
59588;BME280;45412;54.472;18.464;2022-09-17T05:07:17;98152.16;;;9.45;100.00
59588;BME280;45412;54.472;18.464;2022-09-17T05:10:07;98147.13;;;9.56;100.00
59588;BME280;45412;54.472;18.464;2022-09-17T05:12:56;98149.77;;;9.70;100.00
59588;BME280;45412;54.472;18.464;2022-09-17T05:15:44;98147.33;;;9.81;100.00
59588;BME280;45412;54.472;18.464;2022-09-17T05:18:32;98148.33;;;9.94;100.00
59588;BME280;45412;54.472;18.464;2022-09-17T05:21:20;98145.10;;;10.06;100.00
59588;BME280;45412;54.472;18.464;2022-09-17T05:24:08;98151.92;;;10.17;99.99
59588;BME280;45412;54.472;18.464;2022-09-17T05:26:56;98149.95;;;10.22;99.25
59588;BME280;45412;54.472;18.464;2022-09-17T05:29:44;98147.60;;;10.27;99.17
59588;BME280;45412;54.472;18.464;2022-09-17T05:32:34;98142.55;;;10.35;99.09
59588;BME280;45412;54.472;18.464;2022-09-17T05:35:23;98143.05;;;10.39;98.47
59588;BME280;45412;54.472;18.464;2022-09-17T05:38:11;98141.63;;;10.44;97.77
59588;BME280;45412;54.472;18.464;2022-09-17T05:41:05;98140.00;;;10.48;97.54
59588;BME280;45412;54.472;18.464;2022-09-17T05:43:54;98141.80;;;10.51;96.88
59588;BME280;45412;54.472;18.464;2022-09-17T05:46:42;98158.48;;;10.60;96.93
59588;BME280;45412;54.472;18.464;2022-09-17T05:49:30;98159.09;;;10.73;97.04
59588;BME280;45412;54.472;18.464;2022-09-17T05:52:20;98161.54;;;10.77;96.37
59588;BME280;45412;54.472;18.464;2022-09-17T05:55:08;98165.95;;;10.74;95.60
59588;BME280;45412;54.472;18.464;2022-09-17T05:58:17;98165.98;;;10.73;95.65
59588;BME280;45412;54.472;18.464;2022-09-17T06:01:05;98173.69;;;10.79;94.91
59588;BME280;45412;54.472;18.464;2022-09-17T06:03:54;98180.36;;;10.87;94.82
59588;BME280;45412;54.472;18.464;2022-09-17T06:06:42;98184.55;;;10.94;94.05
59588;BME280;45412;54.472;18.464;2022-09-17T06:09:30;98186.70;;;11.01;93.54
59588;BME280;45412;54.472;18.464;2022-09-17T06:12:18;98189.42;;;11.14;92.93
59588;BME280;45412;54.472;18.464;2022-09-17T06:15:07;98194.38;;;11.17;92.06
59588;BME280;45412;54.472;18.464;2022-09-17T06:17:55;98192.65;;;11.12;92.12
59588;BME280;45412;54.472;18.464;2022-09-17T06:21:01;98196.69;;;11.11;92.13
59588;BME280;45412;54.472;18.464;2022-09-17T06:23:55;98196.16;;;11.28;91.62
59588;BME280;45412;54.472;18.464;2022-09-17T06:26:43;98201.81;;;11.56;90.87
59588;BME280;45412;54.472;18.464;2022-09-17T06:29:31;98200.11;;;11.97;89.44
59588;BME280;45412;54.472;18.464;2022-09-17T06:32:19;98203.34;;;12.16;88.19
59588;BME280;45412;54.472;18.464;2022-09-17T06:35:08;98202.81;;;12.76;86.64
59588;BME280;45412;54.472;18.464;2022-09-17T06:37:58;98200.13;;;14.50;80.98
59588;BME280;45412;54.472;18.464;2022-09-17T06:40:51;98190.02;;;15.90;73.41
59588;BME280;45412;54.472;18.464;2022-09-17T06:43:39;98190.45;;;17.06;68.72
59588;BME280;45412;54.472;18.464;2022-09-17T06:46:27;98190.05;;;17.72;64.96
59588;BME280;45412;54.472;18.464;2022-09-17T06:49:15;98192.13;;;17.66;64.48
59588;BME280;45412;54.472;18.464;2022-09-17T06:52:04;98188.35;;;18.87;61.53
59588;BME280;45412;54.472;18.464;2022-09-17T06:54:52;98188.79;;;19.17;59.13
59588;BME280;45412;54.472;18.464;2022-09-17T06:57:40;98194.13;;;18.26;60.34
59588;BME280;45412;54.472;18.464;2022-09-17T07:00:29;98199.87;;;17.61;62.14
59588;BME280;45412;54.472;18.464;2022-09-17T07:03:17;98200.56;;;16.82;64.02
59588;BME280;45412;54.472;18.464;2022-09-17T07:06:10;98202.43;;;15.99;66.02
59588;BME280;45412;54.472;18.464;2022-09-17T07:09:00;98202.02;;;15.62;68.08
59588;BME280;45412;54.472;18.464;2022-09-17T07:11:47;98200.97;;;17.09;65.73
59588;BME280;45412;54.472;18.464;2022-09-17T07:14:35;98198.54;;;18.97;59.24
59588;BME280;45412;54.472;18.464;2022-09-17T07:17:23;98199.16;;;19.35;55.47
59588;BME280;45412;54.472;18.464;2022-09-17T07:20:12;98194.94;;;20.71;52.63
59588;BME280;45412;54.472;18.464;2022-09-17T07:23:00;98197.84;;;21.64;50.22
59588;BME280;45412;54.472;18.464;2022-09-17T07:25:54;98205.31;;;22.05;48.19
59588;BME280;45412;54.472;18.464;2022-09-17T07:28:50;98207.09;;;22.45;46.69
59588;BME280;45412;54.472;18.464;2022-09-17T07:31:40;98212.11;;;21.76;47.93
59588;BME280;45412;54.472;18.464;2022-09-17T07:34:28;98214.92;;;21.95;48.26
59588;BME280;45412;54.472;18.464;2022-09-17T07:37:19;98215.96;;;22.52;46.88
59588;BME280;45412;54.472;18.464;2022-09-17T07:40:08;98215.82;;;22.88;45.96
59588;BME280;45412;54.472;18.464;2022-09-17T07:42:56;98216.88;;;23.02;45.73
59588;BME280;45412;54.472;18.464;2022-09-17T07:45:45;98220.27;;;23.34;44.33
59588;BME280;45412;54.472;18.464;2022-09-17T07:48:33;98220.35;;;23.64;44.12
59588;BME280;45412;54.472;18.464;2022-09-17T07:51:24;98230.02;;;22.59;45.18
59588;BME280;45412;54.472;18.464;2022-09-17T07:54:14;98226.94;;;21.38;47.50
59588;BME280;45412;54.472;18.464;2022-09-17T07:57:03;98231.05;;;21.15;48.79
59588;BME280;45412;54.472;18.464;2022-09-17T07:59:51;98231.38;;;20.60;50.26
59588;BME280;45412;54.472;18.464;2022-09-17T08:02:39;98233.66;;;20.64;50.95
59588;BME280;45412;54.472;18.464;2022-09-17T08:05:28;98232.70;;;20.79;50.30
59588;BME280;45412;54.472;18.464;2022-09-17T08:08:16;98235.20;;;20.63;51.33
59588;BME280;45412;54.472;18.464;2022-09-17T08:11:15;98231.41;;;20.64;51.65
59588;BME280;45412;54.472;18.464;2022-09-17T08:14:26;98238.91;;;20.34;52.75
59588;BME280;45412;54.472;18.464;2022-09-17T08:17:16;98240.34;;;20.11;52.87
59588;BME280;45412;54.472;18.464;2022-09-17T08:20:05;98246.51;;;19.46;54.40
59588;BME280;45412;54.472;18.464;2022-09-17T08:22:59;98248.11;;;18.83;56.44
59588;BME280;45412;54.472;18.464;2022-09-17T08:25:57;98250.73;;;18.92;56.58
59588;BME280;45412;54.472;18.464;2022-09-17T08:28:50;98253.05;;;19.23;56.56
59588;BME280;45412;54.472;18.464;2022-09-17T08:31:41;98266.55;;;18.62;57.29
59588;BME280;45412;54.472;18.464;2022-09-17T08:34:29;98269.20;;;17.92;59.37
59588;BME280;45412;54.472;18.464;2022-09-17T08:37:17;98270.51;;;17.67;60.64
59588;BME280;45412;54.472;18.464;2022-09-17T08:40:06;98269.66;;;17.83;60.47
59588;BME280;45412;54.472;18.464;2022-09-17T08:42:58;98271.73;;;18.36;60.00
59588;BME280;45412;54.472;18.464;2022-09-17T08:45:54;98269.80;;;19.70;56.48
59588;BME280;45412;54.472;18.464;2022-09-17T08:49:33;98263.50;;;21.47;50.83
59588;BME280;45412;54.472;18.464;2022-09-17T08:52:48;98260.48;;;23.73;45.26
59588;BME280;45412;54.472;18.464;2022-09-17T08:59:24;98259.63;;;24.32;41.48
59588;BME280;45412;54.472;18.464;2022-09-17T09:05:22;98265.76;;;22.07;45.23
59588;BME280;45412;54.472;18.464;2022-09-17T09:08:45;98268.59;;;22.69;44.61
59588;BME280;45412;54.472;18.464;2022-09-17T09:11:34;98262.14;;;23.66;42.19
59588;BME280;45412;54.472;18.464;2022-09-17T09:14:26;98260.61;;;24.34;41.50
59588;BME280;45412;54.472;18.464;2022-09-17T09:17:17;98250.73;;;25.46;39.24
59588;BME280;45412;54.472;18.464;2022-09-17T09:20:17;98253.44;;;26.44;37.55
59588;BME280;45412;54.472;18.464;2022-09-17T09:32:58;98250.51;;;28.81;33.43
59588;BME280;45412;54.472;18.464;2022-09-17T09:35:47;98244.91;;;29.07;32.75
59588;BME280;45412;54.472;18.464;2022-09-17T09:38:57;98245.77;;;28.42;33.21
59588;BME280;45412;54.472;18.464;2022-09-17T09:41:52;98245.58;;;27.61;33.22
59588;BME280;45412;54.472;18.464;2022-09-17T09:44:42;98248.89;;;26.72;35.29
59588;BME280;45412;54.472;18.464;2022-09-17T09:48:17;98249.98;;;25.75;37.02
59588;BME280;45412;54.472;18.464;2022-09-17T09:57:43;98235.89;;;27.84;34.65
59588;BME280;45412;54.472;18.464;2022-09-17T10:00:38;98233.00;;;27.73;33.89
59588;BME280;45412;54.472;18.464;2022-09-17T10:03:31;98236.65;;;26.61;35.47
59588;BME280;45412;54.472;18.464;2022-09-17T10:06:29;98229.69;;;25.72;36.63
59588;BME280;45412;54.472;18.464;2022-09-17T10:09:20;98239.02;;;25.24;37.60
59588;BME280;45412;54.472;18.464;2022-09-17T10:15:22;98242.34;;;25.57;37.49
59588;BME280;45412;54.472;18.464;2022-09-17T10:18:19;98243.99;;;26.29;35.98
59588;BME280;45412;54.472;18.464;2022-09-17T10:21:20;98238.38;;;27.21;34.55
59588;BME280;45412;54.472;18.464;2022-09-17T10:24:32;98238.02;;;26.66;35.08
59588;BME280;45412;54.472;18.464;2022-09-17T10:27:22;98234.73;;;25.80;35.91
59588;BME280;45412;54.472;18.464;2022-09-17T10:30:16;98232.21;;;26.07;36.70
59588;BME280;45412;54.472;18.464;2022-09-17T10:33:30;98230.58;;;27.24;34.83
59588;BME280;45412;54.472;18.464;2022-09-17T10:36:43;98242.67;;;25.97;35.66
59588;BME280;45412;54.472;18.464;2022-09-17T10:39:36;98249.22;;;24.35;37.68
59588;BME280;45412;54.472;18.464;2022-09-17T10:42:31;98266.64;;;22.96;40.12
59588;BME280;45412;54.472;18.464;2022-09-17T10:45:29;98276.38;;;21.78;42.94
59588;BME280;45412;54.472;18.464;2022-09-17T10:48:18;98274.83;;;20.69;45.68
59588;BME280;45412;54.472;18.464;2022-09-17T10:51:09;98293.14;;;19.71;48.51
59588;BME280;45412;54.472;18.464;2022-09-17T11:07:39;98336.51;;;14.47;66.79
59588;BME280;45412;54.472;18.464;2022-09-17T11:11:04;98338.28;;;13.96;69.95
59588;BME280;45412;54.472;18.464;2022-09-17T11:17:01;98334.18;;;13.37;75.02
59588;BME280;45412;54.472;18.464;2022-09-17T11:36:41;98328.16;;;14.61;79.39
59588;BME280;45412;54.472;18.464;2022-09-17T11:40:49;98312.27;;;15.05;78.52
59588;BME280;45412;54.472;18.464;2022-09-17T11:44:12;98307.57;;;15.41;77.44
59588;BME280;45412;54.472;18.464;2022-09-17T11:47:39;98306.63;;;15.90;75.78
59588;BME280;45412;54.472;18.464;2022-09-17T11:50:41;98303.80;;;16.44;73.05
59588;BME280;45412;54.472;18.464;2022-09-17T11:53:44;98299.21;;;16.70;72.69
59588;BME280;45412;54.472;18.464;2022-09-17T11:56:47;98295.86;;;17.55;70.99
59588;BME280;45412;54.472;18.464;2022-09-17T12:00:03;98295.13;;;18.48;67.12
59588;BME280;45412;54.472;18.464;2022-09-17T12:06:22;98297.30;;;20.14;58.61
59588;BME280;45412;54.472;18.464;2022-09-17T12:09:24;98295.47;;;20.40;56.64
59588;BME280;45412;54.472;18.464;2022-09-17T12:12:18;98296.08;;;20.45;55.79
59588;BME280;45412;54.472;18.464;2022-09-17T12:15:31;98303.34;;;20.05;55.13
59588;BME280;45412;54.472;18.464;2022-09-17T12:18:55;98305.73;;;19.56;55.87
59588;BME280;45412;54.472;18.464;2022-09-17T12:21:55;98305.87;;;19.00;56.87
59588;BME280;45412;54.472;18.464;2022-09-17T12:24:44;98313.13;;;18.53;58.04
59588;BME280;45412;54.472;18.464;2022-09-17T12:28:01;98318.15;;;18.22;59.41
59588;BME280;45412;54.472;18.464;2022-09-17T12:31:02;98313.83;;;17.90;59.67
59588;BME280;45412;54.472;18.464;2022-09-17T12:34:25;98313.64;;;17.63;61.12
59588;BME280;45412;54.472;18.464;2022-09-17T12:37:41;98306.84;;;17.36;62.30
59588;BME280;45412;54.472;18.464;2022-09-17T12:40:50;98306.24;;;17.16;63.53
59588;BME280;45412;54.472;18.464;2022-09-17T12:47:15;98300.97;;;16.77;64.44
59588;BME280;45412;54.472;18.464;2022-09-17T12:57:30;98290.19;;;16.53;65.88
59588;BME280;45412;54.472;18.464;2022-09-17T13:00:22;98290.09;;;16.48;65.27
59588;BME280;45412;54.472;18.464;2022-09-17T13:03:33;98292.60;;;16.45;65.53
59588;BME280;45412;54.472;18.464;2022-09-17T13:22:29;98296.16;;;16.47;63.04
59588;BME280;45412;54.472;18.464;2022-09-17T13:25:24;98297.86;;;16.41;63.41
59588;BME280;45412;54.472;18.464;2022-09-17T13:28:14;98305.42;;;16.41;64.03
59588;BME280;45412;54.472;18.464;2022-09-17T13:31:02;98306.40;;;16.49;64.59
59588;BME280;45412;54.472;18.464;2022-09-17T13:33:59;98308.37;;;16.55;63.35
59588;BME280;45412;54.472;18.464;2022-09-17T13:36:50;98311.98;;;16.61;64.25
59588;BME280;45412;54.472;18.464;2022-09-17T13:39:50;98312.05;;;16.57;63.21
59588;BME280;45412;54.472;18.464;2022-09-17T13:42:48;98309.89;;;16.53;62.39
59588;BME280;45412;54.472;18.464;2022-09-17T13:48:55;98317.71;;;16.72;61.78
59588;BME280;45412;54.472;18.464;2022-09-17T13:51:47;98327.70;;;16.56;61.92
59588;BME280;45412;54.472;18.464;2022-09-17T13:54:37;98329.50;;;16.38;62.69
59588;BME280;45412;54.472;18.464;2022-09-17T13:57:26;98332.23;;;16.17;63.67
59588;BME280;45412;54.472;18.464;2022-09-17T14:09:48;98333.33;;;15.31;68.03
59588;BME280;45412;54.472;18.464;2022-09-17T14:18:35;98351.91;;;14.72;69.10
59588;BME280;45412;54.472;18.464;2022-09-17T14:21:33;98352.00;;;14.57;69.38
59588;BME280;45412;54.472;18.464;2022-09-17T14:24:25;98360.55;;;14.47;69.61
59588;BME280;45412;54.472;18.464;2022-09-17T14:27:50;98362.19;;;14.39;69.59
59588;BME280;45412;54.472;18.464;2022-09-17T14:30:43;98358.80;;;14.29;70.28
59588;BME280;45412;54.472;18.464;2022-09-17T14:33:32;98362.36;;;14.20;70.98
59588;BME280;45412;54.472;18.464;2022-09-17T14:36:22;98362.66;;;14.08;71.87
59588;BME280;45412;54.472;18.464;2022-09-17T14:39:22;98365.17;;;13.92;72.68
59588;BME280;45412;54.472;18.464;2022-09-17T14:42:24;98366.08;;;13.81;73.17
59588;BME280;45412;54.472;18.464;2022-09-17T14:45:21;98362.40;;;13.73;73.86
59588;BME280;45412;54.472;18.464;2022-09-17T14:48:31;98357.31;;;13.71;74.30
59588;BME280;45412;54.472;18.464;2022-09-17T14:51:26;98357.69;;;13.74;74.97
59588;BME280;45412;54.472;18.464;2022-09-17T14:54:18;98361.13;;;13.75;75.17
59588;BME280;45412;54.472;18.464;2022-09-17T14:59:59;98358.88;;;13.95;74.90
59588;BME280;45412;54.472;18.464;2022-09-17T15:02:53;98358.02;;;14.09;74.52
59588;BME280;45412;54.472;18.464;2022-09-17T15:05:47;98359.43;;;14.13;74.54
59588;BME280;45412;54.472;18.464;2022-09-17T15:08:44;98362.54;;;14.17;74.52
59588;BME280;45412;54.472;18.464;2022-09-17T15:11:39;98361.36;;;14.30;74.47
59588;BME280;45412;54.472;18.464;2022-09-17T15:14:35;98358.55;;;14.38;74.27
59588;BME280;45412;54.472;18.464;2022-09-17T15:17:24;98357.12;;;14.43;74.11
59588;BME280;45412;54.472;18.464;2022-09-17T15:20:27;98355.52;;;14.47;73.94
59588;BME280;45412;54.472;18.464;2022-09-17T15:23:24;98356.87;;;14.36;73.49
59588;BME280;45412;54.472;18.464;2022-09-17T15:26:19;98351.79;;;14.22;73.92
59588;BME280;45412;54.472;18.464;2022-09-17T15:29:14;98350.71;;;14.10;74.64
59588;BME280;45412;54.472;18.464;2022-09-17T15:32:04;98354.91;;;13.96;75.37
59588;BME280;45412;54.472;18.464;2022-09-17T15:38:25;98355.18;;;13.66;76.67
59588;BME280;45412;54.472;18.464;2022-09-17T15:41:30;98358.72;;;13.51;78.33
59588;BME280;45412;54.472;18.464;2022-09-17T15:44:25;98362.07;;;13.42;78.73
59588;BME280;45412;54.472;18.464;2022-09-17T15:47:52;98358.27;;;13.39;79.58
59588;BME280;45412;54.472;18.464;2022-09-17T15:50:53;98359.48;;;13.40;80.09
59588;BME280;45412;54.472;18.464;2022-09-17T15:53:52;98355.91;;;13.41;80.15
59588;BME280;45412;54.472;18.464;2022-09-17T15:56:41;98363.74;;;13.44;80.04
59588;BME280;45412;54.472;18.464;2022-09-17T15:59:32;98359.15;;;13.47;79.99
59588;BME280;45412;54.472;18.464;2022-09-17T16:02:29;98359.31;;;13.47;79.82
59588;BME280;45412;54.472;18.464;2022-09-17T16:05:41;98363.29;;;13.47;79.53
59588;BME280;45412;54.472;18.464;2022-09-17T16:08:33;98371.56;;;13.45;79.45
59588;BME280;45412;54.472;18.464;2022-09-17T16:11:24;98372.67;;;13.43;79.42
59588;BME280;45412;54.472;18.464;2022-09-17T16:14:13;98378.86;;;13.38;80.00
59588;BME280;45412;54.472;18.464;2022-09-17T16:17:26;98378.70;;;13.34;79.96
59588;BME280;45412;54.472;18.464;2022-09-17T16:20:22;98378.04;;;13.27;79.98
59588;BME280;45412;54.472;18.464;2022-09-17T16:23:10;98380.27;;;13.23;80.34
59588;BME280;45412;54.472;18.464;2022-09-17T16:25:59;98378.50;;;13.18;80.36
59588;BME280;45412;54.472;18.464;2022-09-17T16:28:51;98378.56;;;13.13;80.48
59588;BME280;45412;54.472;18.464;2022-09-17T16:31:40;98380.48;;;13.06;80.83
59588;BME280;45412;54.472;18.464;2022-09-17T16:34:28;98380.83;;;12.98;81.21
59588;BME280;45412;54.472;18.464;2022-09-17T16:37:16;98381.91;;;12.88;81.45
59588;BME280;45412;54.472;18.464;2022-09-17T16:40:05;98391.86;;;12.80;81.67
59588;BME280;45412;54.472;18.464;2022-09-17T16:42:53;98393.67;;;12.72;82.26
59588;BME280;45412;54.472;18.464;2022-09-17T16:45:41;98394.89;;;12.60;82.76
59588;BME280;45412;54.472;18.464;2022-09-17T16:48:31;98394.16;;;12.49;83.24
59588;BME280;45412;54.472;18.464;2022-09-17T16:51:19;98394.39;;;12.36;83.88
59588;BME280;45412;54.472;18.464;2022-09-17T16:54:07;98401.35;;;12.24;84.38
59588;BME280;45412;54.472;18.464;2022-09-17T16:56:55;98404.11;;;12.12;85.20
59588;BME280;45412;54.472;18.464;2022-09-17T16:59:43;98402.46;;;12.01;85.78
59588;BME280;45412;54.472;18.464;2022-09-17T17:02:32;98405.28;;;11.91;86.25
59588;BME280;45412;54.472;18.464;2022-09-17T17:05:21;98400.71;;;11.84;86.80
59588;BME280;45412;54.472;18.464;2022-09-17T17:08:10;98408.78;;;11.77;87.36
59588;BME280;45412;54.472;18.464;2022-09-17T17:10:58;98401.25;;;11.71;87.74
59588;BME280;45412;54.472;18.464;2022-09-17T17:13:47;98408.31;;;11.65;88.06
59588;BME280;45412;54.472;18.464;2022-09-17T17:16:36;98408.67;;;11.58;88.61
59588;BME280;45412;54.472;18.464;2022-09-17T17:19:24;98414.52;;;11.49;89.35
59588;BME280;45412;54.472;18.464;2022-09-17T17:22:14;98415.54;;;11.41;90.02
59588;BME280;45412;54.472;18.464;2022-09-17T17:25:04;98414.09;;;11.33;90.53
59588;BME280;45412;54.472;18.464;2022-09-17T17:27:53;98418.34;;;11.28;90.95
59588;BME280;45412;54.472;18.464;2022-09-17T17:30:46;98420.76;;;11.24;91.07
59588;BME280;45412;54.472;18.464;2022-09-17T17:33:34;98424.88;;;11.21;91.81
59588;BME280;45412;54.472;18.464;2022-09-17T17:36:22;98426.44;;;11.17;91.51
59588;BME280;45412;54.472;18.464;2022-09-17T17:39:10;98430.83;;;11.14;92.27
59588;BME280;45412;54.472;18.464;2022-09-17T17:41:58;98438.48;;;11.10;92.72
59588;BME280;45412;54.472;18.464;2022-09-17T17:44:49;98437.20;;;11.07;93.60